• Join FlightAware (Why Join?)
  • Login
  • US Flag 
03:39AM EDT


 

Airport Tracker/Info


-or-


 

Live Flight TrackerFlight Track Log ✈ N61US ✈ 08-Sep-2013 ✈ KEQY - 3CK

Flight Track Log - Related Links

Times and Time Zones

All times are in EDT time to prevent confusion due to time zone crossing. See the N61US flight status page for this flight to view local times or setup timezone preferences in your user account.

Time Position Orientation Groundspeed Altitude Reporting Facility
EDT Latitude Longitude Course Direction KTS MPH feet Rate Location/Type
02:05PM 35.0258 -80.6147 47° Northeast 76 87 1,200  Level Atlanta Center
02:05PM 35.0319 -80.6067 47° Northeast 89 102 1,400 780 Climbing Atlanta Center
02:06PM 35.0539 -80.5781 47° Northeast 106 122 2,400 660 Climbing Atlanta Center
02:07PM 35.0764 -80.5567 38° Northeast 110 127 2,900 540 Climbing Atlanta Center
02:08PM 35.1056 -80.5606 354° North 108 124 3,500 540 Climbing Atlanta Center
02:09PM 35.1392 -80.5667 352° North 112 129 4,000 240 Climbing Atlanta Center
02:10PM 35.1686 -80.5731 350° North 123 142 4,000  Level Atlanta Center
02:11PM 35.2083 -80.5792 353° North 140 161 4,000  Level Atlanta Center
02:12PM 35.2422 -80.5906 345° North 131 151 4,000  Level Atlanta Center
02:13PM 35.2781 -80.6067 340° North 127 146 4,100  Climbing Atlanta Center
02:14PM 35.3097 -80.6233 337° Northwest 133 153 4,000 -60 Descending Atlanta Center
02:15PM 35.3436 -80.6372 342° North 127 146 4,000 180 Level Atlanta Center
02:16PM 35.3714 -80.6589 328° Northwest 123 142 4,400 420 Climbing Atlanta Center
02:17PM 35.4008 -80.6756 335° Northwest 109 125 4,900 240 Climbing Atlanta Center
02:18PM 35.4286 -80.7000 324° Northwest 117 135 5,000 60 Climbing Atlanta Center
02:19PM 35.4567 -80.7267 322° Northwest 142 163 5,100  Climbing Atlanta Center
02:20PM 35.4847 -80.7614 315° West 138 159 5,000 -60 Descending Atlanta Center
02:21PM 35.5106 -80.7911 317° Northwest 132 152 5,000  Level Atlanta Center
02:22PM 35.5297 -80.8131 317° Northwest 132 152 5,000 240 Level Atlanta Center
02:22PM 35.5406 -80.8256 317° Northwest 127 146 5,300 480 Climbing Atlanta Center
02:23PM 35.5556 -80.8403 321° Northwest 121 139 5,500 360 Climbing Atlanta Center
02:24PM 35.5769 -80.8622 320° Northwest 116 133 5,900 360 Climbing Atlanta Center
02:25PM 35.6028 -80.8894 319° Northwest 116 133 6,300 360 Climbing Atlanta Center
02:26PM 35.6286 -80.9192 317° Northwest 116 133 6,700 420 Climbing Atlanta Center
02:27PM 35.6522 -80.9464 317° Northwest 121 139 7,200 420 Climbing Atlanta Center
02:28PM 35.6736 -80.9686 320° Northwest 116 133 7,600 360 Climbing Atlanta Center
02:29PM 35.6953 -80.9958 314° West 111 128 8,000 300 Climbing Atlanta Center
02:30PM 35.7186 -81.0206 319° Northwest 111 128 8,200 300 Climbing Atlanta Center
02:31PM 35.7403 -81.0453 317° Northwest 111 128 8,600 300 Climbing Atlanta Center
02:32PM 35.7636 -81.0675 322° Northwest 111 128 8,900 300 Climbing Atlanta Center
02:33PM 35.7850 -81.0897 320° Northwest 111 128 9,200 300 Climbing Atlanta Center
02:34PM 35.8086 -81.1119 323° Northwest 111 128 9,600 300 Climbing Atlanta Center
02:35PM 35.8300 -81.1342 320° Northwest 111 128 9,900 300 Climbing Atlanta Center
02:36PM 35.8533 -81.1592 319° Northwest 111 128 10,200 120 Climbing Atlanta Center
02:37PM 35.8792 -81.1889 317° Northwest 116 133 10,200 -60 Level Atlanta Center
02:38PM 35.9047 -81.2161 319° Northwest 121 139 10,100 -60 Descending Atlanta Center
02:39PM 35.9306 -81.2436 319° Northwest 121 139 10,100 -60 Level Atlanta Center
02:40PM 35.9542 -81.2733 314° West 121 139 10,000 -60 Descending Atlanta Center
02:41PM 35.9778 -81.3033 314° West 121 139 10,000  Level Atlanta Center
02:42PM 36.0033 -81.3308 319° Northwest 121 139 10,000  Level Atlanta Center
02:43PM 36.0292 -81.3608 317° Northwest 121 139 10,000  Level Atlanta Center
02:44PM 36.0525 -81.3883 316° Northwest 121 139 10,000  Level Atlanta Center
02:45PM 36.0783 -81.4156 320° Northwest 121 139 10,000  Level Atlanta Center
02:46PM 36.1061 -81.4481 317° Northwest 121 139 10,000  Level Atlanta Center
02:47PM 36.1336 -81.4756 321° Northwest 121 139 10,000  Level Atlanta Center
02:48PM 36.1594 -81.5056 317° Northwest 121 139 10,000  Level Atlanta Center
02:49PM 36.1850 -81.5331 319° Northwest 121 139 10,000  Level Atlanta Center
02:50PM 36.2106 -81.5631 317° Northwest 121 139 10,000  Level Atlanta Center
02:51PM 36.2383 -81.5933 319° Northwest 121 139 10,000  Level Atlanta Center
02:52PM 36.2639 -81.6208 319° Northwest 121 139 10,000  Level Atlanta Center
02:53PM 36.2917 -81.6508 319° Northwest 121 139 10,000  Level Atlanta Center
02:54PM 36.3172 -81.6811 316° Northwest 121 139 10,000  Level Atlanta Center
02:55PM 36.3450 -81.7136 317° Northwest 121 139 10,000  Level Atlanta Center
02:56PM 36.3683 -81.7389 319° Northwest 121 139 10,000  Level Atlanta Center
02:57PM 36.3939 -81.7692 316° Northwest 121 139 10,000  Level Atlanta Center
02:58PM 36.4275 -81.7861 338° Northwest 121 139 10,000  Level Atlanta Center
02:59PM 36.4611 -81.7956 347° North 121 139 10,000  Level Atlanta Center
03:01PM 36.5044 -81.8583 311° West 132 152 10,000  Level Indianapolis Center
03:02PM 36.5294 -81.8900 314° West 129 148 10,000  Level Indianapolis Center
03:03PM 36.5556 -81.9208 317° Northwest 130 150 10,000  Level Indianapolis Center
03:04PM 36.5831 -81.9508 319° Northwest 131 151 10,000  Level Indianapolis Center
03:05PM 36.6106 -81.9803 319° Northwest 130 150 10,000  Level Indianapolis Center
03:06PM 36.6417 -82.0144 319° Northwest 129 148 10,000  Level Indianapolis Center
03:07PM 36.6689 -82.0444 319° Northwest 130 150 10,000  Level Indianapolis Center
03:08PM 36.6958 -82.0728 320° Northwest 128 147 10,000  Level Indianapolis Center
03:09PM 36.7144 -82.0939 318° Northwest 131 151 10,000 120 Level Atlanta Center
03:10PM 36.7397 -82.1219 318° Northwest 137 158 10,200 300 Climbing Atlanta Center
03:11PM 36.7611 -82.1472 317° Northwest 120 138 10,600 900 Climbing Atlanta Center
03:12PM 36.7822 -82.1728 316° Northwest 112 129 12,000 360 Climbing Atlanta Center
03:13PM 36.8153 -82.2108 317° Northwest 108 124 11,600 -60 Descending Indianapolis Center
03:14PM 36.8356 -82.2356 316° Northwest 104 120 11,900 240 Climbing Indianapolis Center
03:15PM 36.8567 -82.2586 319° Northwest 102 117 12,100 60 Climbing Indianapolis Center
03:16PM 36.8794 -82.2864 316° Northwest 111 128 12,100 -60 Level Indianapolis Center
03:17PM 36.9064 -82.3183 317° Northwest 128 147 12,000 -60 Descending Indianapolis Center
03:18PM 36.9383 -82.3533 319° Northwest 132 152 12,000  Level Indianapolis Center
03:19PM 36.9644 -82.3842 317° Northwest 129 148 12,000  Level Indianapolis Center
03:20PM 36.9900 -82.4144 317° Northwest 127 146 12,000  Level Indianapolis Center
03:21PM 37.0158 -82.4444 317° Northwest 127 146 12,000  Level Indianapolis Center
03:22PM 37.0408 -82.4761 315° West 127 146 12,000  Level Indianapolis Center
03:24PM 37.0714 -82.5108 318° Northwest 127 146 12,000  Level Indianapolis Center
03:25PM 37.0975 -82.5406 318° Northwest 127 146 12,000  Level Indianapolis Center
03:26PM 37.1236 -82.5706 318° Northwest 128 147 12,000  Level Indianapolis Center
03:27PM 37.1497 -82.6019 316° Northwest 129 148 12,000  Level Indianapolis Center
03:28PM 37.1761 -82.6331 317° Northwest 130 150 12,000  Level Indianapolis Center
03:29PM 37.2056 -82.6711 314° West 130 150 12,000  Level Indianapolis Center
03:30PM 37.2331 -82.7033 317° Northwest 133 153 12,000  Level Indianapolis Center
03:31PM 37.2608 -82.7347 318° Northwest 135 155 12,000  Level Indianapolis Center
03:32PM 37.2875 -82.7644 318° Northwest 131 151 12,000  Level Indianapolis Center
03:33PM 37.3147 -82.7972 316° Northwest 133 153 12,000  Level Indianapolis Center
03:34PM 37.3464 -82.8339 317° Northwest 133 153 12,000  Level Indianapolis Center
03:35PM 37.3739 -82.8653 318° Northwest 134 154 12,000  Level Indianapolis Center
03:36PM 37.4014 -82.8964 318° Northwest 133 153 12,000  Level Indianapolis Center
03:37PM 37.4278 -82.9258 318° Northwest 128 147 12,000  Level Indianapolis Center
03:38PM 37.4539 -82.9581 316° Northwest 130 150 12,000  Level Indianapolis Center
03:39PM 37.4847 -82.9950 316° Northwest 131 151 12,000  Level Indianapolis Center
03:40PM 37.5114 -83.0269 316° Northwest 131 151 12,000  Level Indianapolis Center
03:41PM 37.5383 -83.0586 317° Northwest 133 153 12,000  Level Indianapolis Center
03:42PM 37.5656 -83.0903 317° Northwest 134 154 12,000  Level Indianapolis Center
03:43PM 37.5933 -83.1214 318° Northwest 133 153 12,000  Level Indianapolis Center
03:44PM 37.6242 -83.1594 316° Northwest 134 154 12,000  Level Indianapolis Center
03:45PM 37.6508 -83.1919 316° Northwest 133 153 12,000  Level Indianapolis Center
03:46PM 37.6775 -83.2239 317° Northwest 133 153 12,000  Level Indianapolis Center
03:47PM 37.7033 -83.2547 317° Northwest 129 148 12,000  Level Indianapolis Center
03:48PM 37.7294 -83.2864 316° Northwest 130 150 12,000  Level Indianapolis Center
03:49PM 37.7556 -83.3194 315° West 133 153 12,000  Level Indianapolis Center
03:50PM 37.7867 -83.3550 318° Northwest 131 151 12,000  Level Indianapolis Center
03:51PM 37.8128 -83.3856 317° Northwest 128 147 12,000  Level Indianapolis Center
03:52PM 37.8386 -83.4167 316° Northwest 129 148 12,000  Level Indianapolis Center
03:53PM 37.8650 -83.4475 317° Northwest 131 151 12,000  Level Indianapolis Center
03:55PM 37.8917 -83.4800 316° Northwest 132 152 12,000  Level Indianapolis Center
03:56PM 37.9219 -83.5167 316° Northwest 130 150 12,000  Level Indianapolis Center
03:57PM 37.9472 -83.5478 316° Northwest 128 147 12,000  Level Indianapolis Center
03:58PM 37.9739 -83.5783 318° Northwest 128 147 12,000  Level Indianapolis Center
03:59PM 37.9983 -83.6103 314° West 128 147 12,000  Level Indianapolis Center
04:00PM 38.0253 -83.6389 320° Northwest 127 146 12,000  Level Indianapolis Center
04:01PM 38.0506 -83.6714 315° West 127 146 12,000  Level Indianapolis Center
04:02PM 38.0808 -83.7064 318° Northwest 127 146 12,000  Level Indianapolis Center
04:03PM 38.1069 -83.7381 316° Northwest 128 147 12,000  Level Indianapolis Center
04:04PM 38.1397 -83.7569 336° Northwest 128 147 12,000  Level Indianapolis Center
04:05PM 38.1722 -83.7794 331° Northwest 131 151 12,000  Level Indianapolis Center
04:06PM 38.1981 -83.8094 318° Northwest 129 148 12,000  Level Indianapolis Center
04:07PM 38.2278 -83.8489 314° West 130 150 12,000  Level Indianapolis Center
04:08PM 38.2528 -83.8811 315° West 130 150 12,000  Level Indianapolis Center
04:09PM 38.2775 -83.9139 314° West 129 148 12,000  Level Indianapolis Center
04:10PM 38.3028 -83.9461 315° West 128 147 12,000  Level Indianapolis Center
04:11PM 38.3292 -83.9775 317° Northwest 130 150 12,000  Level Indianapolis Center
04:12PM 38.3547 -84.0083 317° Northwest 128 147 12,000  Level Indianapolis Center
04:13PM 38.3850 -84.0436 318° Northwest 126 145 12,100  Climbing Indianapolis Center
04:14PM 38.4097 -84.0753 315° West 126 145 12,100  Level Indianapolis Center
04:15PM 38.4364 -84.1056 318° Northwest 128 147 12,100  Level Indianapolis Center
04:16PM 38.4628 -84.1372 317° Northwest 130 150 12,100  Level Indianapolis Center
04:17PM 38.4886 -84.1678 317° Northwest 127 146 12,100  Level Indianapolis Center
04:18PM 38.5136 -84.2028 312° West 133 153 12,100  Level Indianapolis Center
04:19PM 38.5431 -84.2372 318° Northwest 126 145 12,100  Level Indianapolis Center
04:20PM 38.5683 -84.2703 314° West 128 147 12,100  Level Indianapolis Center
04:21PM 38.5922 -84.3014 314° West 124 143 12,100  Level Indianapolis Center
04:22PM 38.6167 -84.3322 315° West 123 142 12,100  Level Indianapolis Center
04:23PM 38.6422 -84.3647 315° West 128 147 12,100 -60 Level Indianapolis Center
04:24PM 38.6664 -84.3961 315° West 127 146 12,000 -60 Descending Indianapolis Center
04:26PM 38.6922 -84.4250 319° Northwest 124 143 12,000  Level Indianapolis Center
04:27PM 38.7217 -84.4631 315° West 126 145 12,000  Level Indianapolis Center
04:28PM 38.7478 -84.4936 318° Northwest 126 145 12,000  Level Indianapolis Center
04:29PM 38.7725 -84.5264 314° West 127 146 12,000  Level Indianapolis Center
04:30PM 38.7981 -84.5597 315° West 130 150 12,000  Level Indianapolis Center
04:31PM 38.8228 -84.5931 314° West 129 148 12,000  Level Indianapolis Center
04:32PM 38.8492 -84.6225 319° Northwest 129 148 12,000  Level Indianapolis Center
04:33PM 38.8833 -84.6667 315° West 129 148 12,000  Level Cincinnati TRACON
04:34PM 38.9167 -84.7000 322° Northwest 127 146 12,000  Level Cincinnati TRACON
04:35PM 38.9333 -84.7167 322° Northwest 128 147 12,000  Level Cincinnati TRACON
04:36PM 38.9500 -84.7500 303° West 131 151 12,000  Level Cincinnati TRACON
04:37PM 38.9833 -84.7833 322° Northwest 131 151 12,000  Level Cincinnati TRACON
04:38PM 39.0000 -84.8167 303° West 130 150 12,000  Level Cincinnati TRACON
04:39PM 39.0167 -84.8500 303° West 129 148 12,000  Level Cincinnati TRACON
04:40PM 39.0500 -84.9000 311° West 131 151 12,000  Level Cincinnati TRACON
04:40PM 39.0667 -84.9333 303° West 130 150 12,000  Level Cincinnati TRACON
04:41PM 39.0833 -84.9667 303° West 129 148 12,000  Level Cincinnati TRACON
04:42PM 39.0922 -84.9856 301° West 131 151 12,000  Level Indianapolis Center
04:43PM 39.1119 -85.0236 304° West 128 147 12,000  Level Indianapolis Center
04:44PM 39.1347 -85.0608 308° West 131 151 12,000  Level Indianapolis Center
04:45PM 39.1603 -85.1067 306° West 132 152 12,000  Level Indianapolis Center
04:46PM 39.1817 -85.1442 306° West 131 151 12,000  Level Indianapolis Center
04:47PM 39.2019 -85.1814 305° West 129 148 12,000  Level Indianapolis Center
04:48PM 39.2219 -85.2189 305° West 129 148 12,000  Level Indianapolis Center
04:49PM 39.2442 -85.2572 307° West 132 152 12,000  Level Indianapolis Center
04:50PM 39.2653 -85.2939 307° West 129 148 12,000  Level Indianapolis Center
04:51PM 39.2906 -85.3378 307° West 129 148 12,000  Level Indianapolis Center
04:52PM 39.3114 -85.3756 305° West 130 150 12,000  Level Indianapolis Center
04:53PM 39.3325 -85.4136 306° West 130 150 12,000  Level Indianapolis Center
04:54PM 39.3539 -85.4489 308° West 127 146 12,000  Level Indianapolis Center
04:55PM 39.3803 -85.4797 318° Northwest 127 146 12,000  Level Indianapolis Center
04:56PM 39.4117 -85.5186 316° Northwest 130 150 12,000  Level Indianapolis Center
04:58PM 39.4383 -85.5503 317° Northwest 131 151 12,000  Level Indianapolis Center
04:59PM 39.4647 -85.5819 317° Northwest 130 150 12,000  Level Indianapolis Center
05:00PM 39.4897 -85.6142 315° West 128 147 12,000  Level Indianapolis Center
05:01PM 39.5136 -85.6456 315° West 125 144 12,000  Level Indianapolis Center
05:02PM 39.5394 -85.6772 317° Northwest 128 147 12,000  Level Indianapolis Center
05:03PM 39.5697 -85.7139 317° Northwest 126 145 12,000  Level Indianapolis Center
05:04PM 39.5950 -85.7472 315° West 130 150 12,000  Level Indianapolis Center
05:05PM 39.6211 -85.7775 318° Northwest 127 146 12,000  Level Indianapolis Center
05:06PM 39.6456 -85.8089 315° West 127 146 12,000  Level Indianapolis Center
05:07PM 39.6706 -85.8417 315° West 128 147 12,000  Level Indianapolis Center
05:08PM 39.7014 -85.8783 318° Northwest 126 145 12,000  Level Indianapolis Center
05:09PM 39.7269 -85.9114 315° West 130 150 12,000  Level Indianapolis Center
05:10PM 39.7519 -85.9428 316° Northwest 127 146 12,000  Level Indianapolis Center
05:11PM 39.7769 -85.9750 315° West 128 147 12,000  Level Indianapolis Center
05:12PM 39.8031 -86.0061 318° Northwest 127 146 12,000  Level Indianapolis Center
05:13PM 39.8294 -86.0381 317° Northwest 130 150 12,000  Level Indianapolis Center
05:14PM 39.8611 -86.0747 318° Northwest 128 147 12,000  Level Indianapolis Center
05:15PM 39.8858 -86.1075 315° West 128 147 12,000  Level Indianapolis Center
05:16PM 39.9114 -86.1394 316° Northwest 128 147 12,000  Level Indianapolis Center
05:17PM 39.9364 -86.1708 316° Northwest 126 145 12,000  Level Indianapolis Center
05:18PM 39.9614 -86.2044 314° West 130 150 12,000  Level Indianapolis Center
05:19PM 39.9939 -86.2447 316° Northwest 134 154 12,000  Level Indianapolis Center
05:20PM 40.0211 -86.2786 316° Northwest 136 157 12,000  Level Indianapolis Center
05:21PM 40.0469 -86.3125 315° West 133 153 12,000  Level Indianapolis Center
05:22PM 40.0733 -86.3458 316° Northwest 133 153 12,000  Level Indianapolis Center
05:23PM 40.1011 -86.3792 317° Northwest 135 155 12,000  Level Indianapolis Center
05:24PM 40.1272 -86.4125 316° Northwest 133 153 12,000  Level Indianapolis Center
05:25PM 40.1486 -86.4394 316° Northwest 131 151 12,000  Level Chicago Center
05:26PM 40.1733 -86.4725 314° West 129 148 12,000  Level Chicago Center
05:27PM 40.2069 -86.5117 318° Northwest 133 153 12,000  Level Chicago Center
05:28PM 40.2317 -86.5450 314° West 129 148 12,000  Level Chicago Center
05:29PM 40.2578 -86.5789 315° West 131 151 12,000  Level Chicago Center
05:30PM 40.2833 -86.6119 315° West 131 151 12,000  Level Chicago Center
05:31PM 40.3106 -86.6461 316° Northwest 134 154 12,000  Level Chicago Center
05:32PM 40.3414 -86.6864 315° West 133 153 12,000  Level Chicago Center
05:33PM 40.3642 -86.7219 310° West 128 147 12,000  Level Chicago Center
05:34PM 40.3825 -86.7628 301° West 129 148 12,000  Level Chicago Center
05:35PM 40.4028 -86.8033 303° West 131 151 12,000  Level Chicago Center
05:37PM 40.4233 -86.8417 305° West 129 148 12,000  Level Chicago Center
05:38PM 40.4494 -86.8892 306° West 133 153 12,000  Level Chicago Center
05:39PM 40.4722 -86.9258 309° West 132 152 12,000  Level Chicago Center
05:40PM 40.4953 -86.9625 310° West 131 151 12,000  Level Chicago Center
05:41PM 40.5164 -87.0006 306° West 130 150 12,000  Level Chicago Center
05:42PM 40.5386 -87.0392 307° West 132 152 12,000  Level Chicago Center
05:43PM 40.5614 -87.0786 307° West 134 154 12,000  Level Chicago Center
05:44PM 40.5861 -87.1275 304° West 135 155 12,000  Level Chicago Center
05:45PM 40.6078 -87.1664 306° West 133 153 12,000  Level Chicago Center
05:46PM 40.6303 -87.2039 308° West 132 152 12,000  Level Chicago Center
05:47PM 40.6503 -87.2450 303° West 133 153 12,000  Level Chicago Center
05:48PM 40.6756 -87.2917 306° West 131 151 12,000  Level Chicago Center
05:49PM 40.6958 -87.3300 305° West 129 148 12,000  Level Chicago Center
05:50PM 40.7167 -87.3708 304° West 132 152 12,000  Level Chicago Center
05:51PM 40.7372 -87.4100 305° West 132 152 12,000  Level Chicago Center
05:52PM 40.7583 -87.4497 305° West 132 152 12,000  Level Chicago Center
05:53PM 40.7844 -87.4972 306° West 134 154 12,000  Level Chicago Center
05:54PM 40.8056 -87.5364 305° West 133 153 12,000  Level Chicago Center
05:55PM 40.8267 -87.5758 305° West 131 151 12,000  Level Chicago Center
05:56PM 40.8481 -87.6136 307° West 129 148 12,000  Level Chicago Center
05:57PM 40.8692 -87.6544 304° West 133 153 12,000  Level Chicago Center
05:58PM 40.8908 -87.6939 306° West 134 154 12,000  Level Chicago Center
05:59PM 40.9153 -87.7406 305° West 130 150 12,000  Level Chicago Center
06:00PM 40.9364 -87.7800 305° West 131 151 12,000  Level Chicago Center
06:01PM 40.9578 -87.8181 307° West 130 150 12,000  Level Chicago Center
06:02PM 40.9778 -87.8578 304° West 130 150 12,000  Level Chicago Center
06:03PM 40.9989 -87.8969 306° West 131 151 12,100 -300 Climbing Chicago Center
06:04PM 41.0400 -87.9286 330° Northwest 145 167 11,500 -660 Descending Chicago Center
06:05PM 41.0781 -87.9561 331° Northwest 155 178 10,800 -840 Descending Chicago Center
06:07PM 41.1164 -87.9828 332° Northwest 156 180 9,800 -1,020 Descending Chicago Center
06:08PM 41.1539 -88.0100 331° Northwest 156 180 8,700 -1,020 Descending Chicago Center
06:09PM 41.1922 -88.0383 331° Northwest 156 180 7,700 -1,080 Descending Chicago Center
06:10PM 41.2367 -88.0744 329° Northwest 157 181 6,500 -1,140 Descending Chicago Center
06:11PM 41.2731 -88.1047 328° Northwest 155 178 5,400 -1,020 Descending Chicago Center
06:12PM 41.3097 -88.1347 328° Northwest 154 177 4,400 -660 Descending Chicago Center
06:13PM 41.3467 -88.1656 328° Northwest 156 180 4,100 -180 Descending Chicago Center
06:14PM 41.3819 -88.1936 329° Northwest 150 173 4,100  Level Chicago Center
06:15PM 41.4175 -88.2217 329° Northwest 148 170 4,100  Level Chicago Center
06:16PM 41.4533 -88.2500 329° Northwest 149 171 4,100  Level Chicago Center
06:17PM 41.4961 -88.2817 331° Northwest 147 169 4,100  Level Chicago Center
06:18PM 41.5322 -88.3092 330° Northwest 148 170 4,100  Level Chicago Center
06:19PM 41.5683 -88.3367 330° Northwest 150 173 4,100  Level Chicago Center
06:20PM 41.6036 -88.3636 330° Northwest 148 170 4,100  Level Chicago Center
06:21PM 41.6394 -88.3911 330° Northwest 148 170 4,100  Level Chicago Center
06:22PM 41.6753 -88.4172 331° Northwest 148 170 4,100  Level Chicago Center
06:23PM 41.7172 -88.4506 329° Northwest 147 169 4,100  Level Chicago Center
06:24PM 41.7528 -88.4775 331° Northwest 147 169 4,100  Level Chicago Center
06:25PM 41.7878 -88.5047 330° Northwest 146 168 4,100 -180 Level Chicago Center
06:26PM 41.8228 -88.5322 330° Northwest 147 169 3,800 -420 Descending Chicago Center
06:27PM 41.8608 -88.5631 329° Northwest 153 176 3,300 -360 Descending Chicago Center
06:28PM 41.9056 -88.5975 330° Northwest 155 178 3,100 -120 Descending Chicago Center
06:29PM 41.9408 -88.6225 332° Northwest 150 173 3,100  Level Chicago Center
06:30PM 41.9750 -88.6497 329° Northwest 147 169 3,100  Level Chicago Center
06:31PM 42.0103 -88.6439 North 147 169 3,100  Level Chicago Center
06:32PM 42.0450 -88.6222 25° Northeast 142 163 3,100  Level Chicago Center
06:33PM 42.0889 -88.5989 22° Northeast 141 162 3,100 -60 Level Chicago Center
06:34PM 42.1244 -88.5794 22° Northeast 140 161 3,000 -240 Descending Chicago Center
06:35PM 42.1600 -88.5603 22° Northeast 140 161 2,600 -240 Descending Chicago Center
06:37PM 42.1772 -88.5322 50° Northeast 132 152 2,600  Level Chicago Center
06:38PM 42.1811 -88.4939 82° East 115 132 2,600  Level Chicago Center
06:39PM 42.1886 -88.4528 76° East 111 128 2,600 -300 Level Chicago Center
06:40PM 42.1950 -88.4050 80° East 110 127 2,000 -480 Descending Chicago Center
06:41PM 42.2006 -88.3678 79° East 110 127 1,700 -300 Descending Chicago Center
06:43PM 42.2167 -88.3167 67° East 82 94 1,100 -300 Descending Chicago TRACON
06:45PM 42.2068 -88.3230 98° East  Level Estimated
06:52PM 42.2068 -88.3230 270° West  Level Estimated
06:53PM 42.2068 -88.3230 251° West  Level Estimated
06:54PM 42.2068 -88.3230 270° West  Level Estimated